Time;durP1;ratioP1;P1;durP2;ratioP2;P2;SDS_P1;SDS_P2;PMS_P1;PMS_P2;Temp;Humidity;BMP_temperature;BMP_pressure;BME280_temperature;BME280_humidity;BME280_pressure;Samples;Min_cycle;Max_cycle;Signal;HPM_P1;HPM_P2
2021/11/13 00:01:00;;;;;;;0.30;0.30;;;;;;;2.97;100.00;100583.16;5006348;28;20065;-77
2021/11/13 00:03:33;;;;;;;0.20;0.20;;;;;;;2.94;100.00;100584.47;5001717;28;20053;-77
2021/11/13 00:06:06;;;;;;;0.30;0.30;;;;;;;2.95;100.00;100585.28;5006917;28;20071;-77
2021/11/13 00:08:39;;;;;;;0.30;0.30;;;;;;;2.90;100.00;100577.91;5005767;28;20441;-78
2021/11/13 00:11:14;;;;;;;0.20;0.20;;;;;;;2.95;100.00;100588.78;5004611;28;20081;-77
2021/11/13 00:13:51;;;;;;;0.20;0.20;;;;;;;2.93;100.00;100576.59;5002974;28;20041;-78
2021/11/13 00:16:25;;;;;;;0.20;0.20;;;;;;;2.94;100.00;100580.94;5003445;28;20057;-77
2021/11/13 00:18:58;;;;;;;0.20;0.20;;;;;;;2.89;100.00;100579.78;5003739;28;20042;-76
2021/11/13 00:21:31;;;;;;;0.20;0.20;;;;;;;2.80;100.00;100581.16;5000846;28;20407;-78
2021/11/13 00:24:05;;;;;;;0.20;0.20;;;;;;;2.78;100.00;100588.63;5003273;28;20049;-78
2021/11/13 00:26:40;;;;;;;0.20;0.20;;;;;;;2.76;100.00;100589.91;5005540;28;20054;-77
2021/11/13 00:29:08;;;;;;;0.30;0.30;;;;;;;2.76;100.00;100581.84;4999019;28;20081;-78
2021/11/13 00:31:42;;;;;;;0.30;0.30;;;;;;;2.80;100.00;100573.09;5000381;28;20058;-77
2021/11/13 00:34:15;;;;;;;0.20;0.20;;;;;;;2.79;100.00;100578.69;5003119;28;20489;-76
2021/11/13 00:36:43;;;;;;;0.20;0.20;;;;;;;2.75;100.00;100581.03;5004290;28;20058;-77
2021/11/13 00:39:16;;;;;;;0.20;0.20;;;;;;;2.71;100.00;100569.13;5001845;28;20042;-77
2021/11/13 00:41:46;;;;;;;0.20;0.20;;;;;;;2.80;100.00;100569.59;5004283;28;20046;-77
2021/11/13 00:44:14;;;;;;;0.20;0.20;;;;;;;2.70;100.00;100565.59;4999500;28;20069;-78
2021/11/13 00:46:48;;;;;;;0.20;0.20;;;;;;;2.75;100.00;100567.59;5006862;28;20434;-76
2021/11/13 00:49:17;;;;;;;0.20;0.20;;;;;;;2.65;100.00;100560.09;5007916;28;20327;-76
2021/11/13 00:51:50;;;;;;;0.20;0.20;;;;;;;2.69;100.00;100568.50;5000226;28;20068;-76
2021/11/13 00:54:24;;;;;;;0.20;0.20;;;;;;;2.80;100.00;100564.22;4999561;28;20493;-76
2021/11/13 00:56:58;;;;;;;0.30;0.30;;;;;;;2.77;100.00;100570.88;5004714;28;20050;-77
2021/11/13 00:59:32;;;;;;;0.30;0.30;;;;;;;2.72;100.00;100578.78;5002890;28;20057;-77
2021/11/13 01:02:07;;;;;;;0.25;0.25;;;;;;;2.74;100.00;100567.84;5032123;28;20049;-77
2021/11/13 01:04:41;;;;;;;0.30;0.30;;;;;;;2.78;100.00;100560.94;5000421;28;20513;-78
2021/11/13 01:07:15;;;;;;;0.30;0.30;;;;;;;2.85;100.00;100567.03;5001220;28;20054;-78
2021/11/13 01:09:48;;;;;;;0.30;0.30;;;;;;;2.77;100.00;100562.81;5008287;28;20461;-76
2021/11/13 01:12:22;;;;;;;0.20;0.20;;;;;;;2.76;100.00;100569.22;5003569;28;20046;-77
2021/11/13 01:14:56;;;;;;;0.30;0.30;;;;;;;2.66;100.00;100568.97;5003248;28;20475;-78
2021/11/13 01:17:29;;;;;;;0.20;0.20;;;;;;;2.67;100.00;100570.63;5024145;28;20058;-77
2021/11/13 01:20:03;;;;;;;0.20;0.20;;;;;;;2.71;100.00;100559.16;5005950;28;20046;-76
2021/11/13 01:22:37;;;;;;;0.30;0.30;;;;;;;2.72;100.00;100570.72;5006117;28;20061;-77
2021/11/13 01:25:12;;;;;;;0.30;0.30;;;;;;;2.68;100.00;100578.44;5003516;28;20054;-76
2021/11/13 01:27:47;;;;;;;0.20;0.20;;;;;;;2.68;100.00;100574.91;5006982;28;20060;-77
2021/11/13 01:30:20;;;;;;;0.20;0.20;;;;;;;2.72;100.00;100568.88;4998782;28;20059;-77
2021/11/13 01:32:54;;;;;;;0.20;0.20;;;;;;;2.62;100.00;100582.03;5001797;28;20050;-78
2021/11/13 01:35:24;;;;;;;0.20;0.20;;;;;;;2.75;100.00;100583.72;5021337;28;20057;-76
2021/11/13 01:37:57;;;;;;;0.30;0.30;;;;;;;2.69;100.00;100572.03;5007054;28;20402;-76
2021/11/13 01:40:35;;;;;;;0.20;0.20;;;;;;;2.73;100.00;100569.69;5003054;28;20558;-77
2021/11/13 01:43:09;;;;;;;0.20;0.20;;;;;;;2.76;100.00;100571.91;5011041;28;20505;-77
2021/11/13 01:45:43;;;;;;;0.20;0.20;;;;;;;2.73;100.00;100572.38;5006273;28;20053;-77
2021/11/13 01:48:16;;;;;;;0.20;0.20;;;;;;;2.71;100.00;100566.44;5000075;28;20053;-79
2021/11/13 01:50:54;;;;;;;0.30;0.30;;;;;;;2.81;100.00;100555.91;5005341;28;20488;-78
2021/11/13 01:53:23;;;;;;;0.30;0.30;;;;;;;2.81;100.00;100563.97;4989985;28;20050;-77
2021/11/13 01:55:56;;;;;;;0.20;0.20;;;;;;;2.84;100.00;100554.63;5001731;28;20049;-78
2021/11/13 01:58:31;;;;;;;0.30;0.30;;;;;;;2.78;100.00;100553.69;4995602;28;20058;-77
2021/11/13 02:01:06;;;;;;;0.20;0.20;;;;;;;2.78;100.00;100551.00;5004917;28;20057;-77
2021/11/13 02:03:39;;;;;;;0.20;0.20;;;;;;;2.73;100.00;100553.56;5001091;28;20502;-78
2021/11/13 02:06:13;;;;;;;0.20;0.20;;;;;;;2.74;100.00;100541.78;4998934;28;20054;-78
2021/11/13 02:08:42;;;;;;;0.30;0.30;;;;;;;2.71;100.00;100550.31;5006070;28;20405;-78
2021/11/13 02:11:19;;;;;;;0.30;0.30;;;;;;;2.78;100.00;100537.56;5000950;28;20061;-78
2021/11/13 02:13:49;;;;;;;0.30;0.30;;;;;;;2.77;100.00;100549.38;5006107;28;20054;-78
2021/11/13 02:16:23;;;;;;;0.25;0.25;;;;;;;2.79;100.00;100555.34;5002410;28;20045;-77
2021/11/13 02:18:56;;;;;;;0.20;0.20;;;;;;;2.77;100.00;100548.56;5005954;28;20057;-77
2021/11/13 02:21:31;;;;;;;0.20;0.20;;;;;;;2.83;100.00;100559.22;5030860;28;20072;-77
2021/11/13 02:24:00;;;;;;;0.30;0.30;;;;;;;2.79;100.00;100566.09;5001327;28;20100;-78
2021/11/13 02:26:33;;;;;;;0.30;0.30;;;;;;;2.78;100.00;100572.50;4997287;28;20054;-78
2021/11/13 02:29:07;;;;;;;0.20;0.20;;;;;;;2.72;100.00;100563.50;5008636;28;20061;-77
2021/11/13 02:31:43;;;;;;;0.20;0.20;;;;;;;2.78;100.00;100560.94;5004626;28;20053;-79
2021/11/13 02:34:17;;;;;;;0.20;0.20;;;;;;;2.70;100.00;100554.03;5002564;28;20728;-78
2021/11/13 02:36:46;;;;;;;0.20;0.20;;;;;;;2.80;100.00;100554.28;5013656;28;20054;-77
2021/11/13 02:39:20;;;;;;;0.20;0.20;;;;;;;2.75;100.00;100556.84;5001008;28;20075;-77
2021/11/13 02:41:54;;;;;;;0.20;0.20;;;;;;;2.78;100.00;100550.19;5011526;28;20045;-77
2021/11/13 02:44:27;;;;;;;0.20;0.20;;;;;;;2.78;100.00;100550.19;5000397;28;20061;-77
2021/11/13 02:46:55;;;;;;;0.30;0.30;;;;;;;2.79;100.00;100552.66;5015564;28;20057;-77
2021/11/13 02:49:31;;;;;;;0.20;0.20;;;;;;;2.78;100.00;100548.31;5005941;28;20406;-77
2021/11/13 02:52:07;;;;;;;0.30;0.30;;;;;;;2.82;100.00;100554.88;5004795;28;20050;-76
2021/11/13 02:54:43;;;;;;;0.22;0.22;;;;;;;2.77;100.00;100535.13;4999443;28;20061;-77
2021/11/13 02:57:12;;;;;;;0.20;0.20;;;;;;;2.88;100.00;100547.75;5005812;28;20065;-77
2021/11/13 02:59:47;;;;;;;0.20;0.20;;;;;;;2.82;100.00;100549.50;5004016;28;20049;-77
2021/11/13 03:02:21;;;;;;;0.20;0.20;;;;;;;2.89;100.00;100552.88;4999429;28;20399;-77
2021/11/13 03:04:54;;;;;;;0.20;0.20;;;;;;;2.92;100.00;100543.53;5005240;28;20053;-76
2021/11/13 03:07:23;;;;;;;0.20;0.20;;;;;;;2.91;100.00;100541.91;5008496;28;20057;-77
2021/11/13 03:10:01;;;;;;;0.30;0.30;;;;;;;2.91;100.00;100539.22;5003450;28;20104;-77
2021/11/13 03:12:36;;;;;;;0.20;0.20;;;;;;;2.87;100.00;100541.56;5000089;28;20429;-76
2021/11/13 03:15:10;;;;;;;0.20;0.20;;;;;;;2.90;100.00;100526.84;5002156;28;20050;-76
2021/11/13 03:17:44;;;;;;;0.30;0.30;;;;;;;2.84;100.00;100527.75;4994838;28;20050;-76
2021/11/13 03:20:20;;;;;;;0.20;0.20;;;;;;;2.88;100.00;100534.31;5030918;28;20061;-76
2021/11/13 03:22:55;;;;;;;0.30;0.30;;;;;;;2.88;100.00;100537.00;5003515;28;20050;-76
2021/11/13 03:25:33;;;;;;;0.20;0.20;;;;;;;2.89;100.00;100534.06;5001604;28;20051;-77
2021/11/13 03:28:10;;;;;;;0.20;0.20;;;;;;;2.89;100.00;100534.06;5000550;28;20049;-76
2021/11/13 03:30:40;;;;;;;0.20;0.20;;;;;;;2.87;100.00;100538.88;4994459;28;20514;-76
2021/11/13 03:33:09;;;;;;;0.20;0.20;;;;;;;2.92;100.00;100548.13;5000843;28;20058;-77
2021/11/13 03:35:42;;;;;;;0.20;0.20;;;;;;;2.91;100.00;100551.84;4996173;28;20042;-76
2021/11/13 03:38:16;;;;;;;0.20;0.20;;;;;;;2.89;100.00;100546.72;5004738;28;20058;-75
2021/11/13 03:40:49;;;;;;;;;;;;;;;2.80;100.00;100545.41;4998949;28;20402;-75
2021/11/13 03:43:24;;;;;;;0.20;0.20;;;;;;;2.82;100.00;100540.63;5021106;28;19925;-76
2021/11/13 03:45:53;;;;;;;0.20;0.20;;;;;;;2.95;100.00;100542.28;5001874;28;20096;-77
2021/11/13 03:48:26;;;;;;;0.20;0.20;;;;;;;2.84;100.00;100533.13;4999874;28;20058;-75
2021/11/13 03:50:59;;;;;;;0.22;0.22;;;;;;;2.87;100.00;100538.03;4999841;28;20065;-76
2021/11/13 03:53:34;;;;;;;0.20;0.20;;;;;;;2.88;100.00;100526.25;4998136;28;20089;-76
2021/11/13 03:56:07;;;;;;;0.20;0.20;;;;;;;2.90;100.00;100532.22;5012054;28;20065;-77
2021/11/13 03:58:36;;;;;;;0.20;0.20;;;;;;;2.93;100.00;100529.06;5002596;28;20061;-75
2021/11/13 04:01:09;;;;;;;0.30;0.30;;;;;;;2.87;100.00;100522.75;4997117;28;20057;-77
2021/11/13 04:03:42;;;;;;;0.20;0.20;;;;;;;2.88;100.00;100529.75;5001940;28;20049;-76
2021/11/13 04:06:19;;;;;;;0.20;0.20;;;;;;;2.94;100.00;100528.03;4999820;28;20042;-76
2021/11/13 04:08:53;;;;;;;0.28;0.28;;;;;;;2.91;100.00;100530.34;5001792;28;20518;-76
2021/11/13 04:11:27;;;;;;;0.20;0.20;;;;;;;3.01;100.00;100534.09;4998380;28;20054;-76
2021/11/13 04:14:00;;;;;;;0.22;0.22;;;;;;;3.02;100.00;100530.34;5003566;28;20056;-76
2021/11/13 04:16:29;;;;;;;0.20;0.20;;;;;;;3.04;100.00;100525.56;5003401;28;20466;-76
2021/11/13 04:19:02;;;;;;;0.20;0.20;;;;;;;2.99;100.00;100522.75;5002802;28;20410;-77
2021/11/13 04:21:35;;;;;;;0.20;0.20;;;;;;;2.98;100.00;100528.34;4991481;28;20054;-78
2021/11/13 04:24:10;;;;;;;0.20;0.20;;;;;;;2.96;100.00;100525.91;5004086;28;20246;-76
2021/11/13 04:26:43;;;;;;;0.20;0.20;;;;;;;2.93;100.00;100523.69;4999286;28;20062;-76
2021/11/13 04:29:16;;;;;;;0.20;0.20;;;;;;;2.87;100.00;100522.75;5002591;28;20057;-77
2021/11/13 04:31:45;;;;;;;0.20;0.20;;;;;;;2.92;100.00;100524.72;4997758;28;20057;-77
2021/11/13 04:34:21;;;;;;;0.20;0.20;;;;;;;2.93;100.00;100528.22;4997922;28;20443;-77
2021/11/13 04:36:59;;;;;;;0.20;0.20;;;;;;;2.93;100.00;100534.44;5003718;28;20395;-76
2021/11/13 04:39:28;;;;;;;0.28;0.28;;;;;;;2.98;100.00;100539.09;5029900;28;20046;-76
2021/11/13 04:41:56;;;;;;;0.20;0.20;;;;;;;3.01;100.00;100539.47;4999611;28;20054;-76
2021/11/13 04:44:25;;;;;;;0.22;0.22;;;;;;;2.96;100.00;100533.97;4998999;28;20062;-77
2021/11/13 04:46:58;;;;;;;0.20;0.20;;;;;;;3.02;100.00;100540.28;4999303;28;20561;-79
2021/11/13 04:49:31;;;;;;;0.25;0.25;;;;;;;3.03;100.00;100544.63;4997801;28;20402;-77
2021/11/13 04:52:07;;;;;;;0.20;0.20;;;;;;;3.04;100.00;100541.69;5005642;28;20048;-77
2021/11/13 04:54:42;;;;;;;0.20;0.20;;;;;;;3.01;100.00;100538.63;4997202;28;20058;-79
2021/11/13 04:57:15;;;;;;;0.20;0.20;;;;;;;3.05;100.00;100548.72;5000484;28;20050;-77
2021/11/13 04:59:43;;;;;;;0.20;0.20;;;;;;;3.05;100.00;100537.97;5001356;28;20046;-79
2021/11/13 05:02:16;;;;;;;0.20;0.20;;;;;;;3.03;100.00;100534.66;5002980;28;20081;-79
2021/11/13 05:04:54;;;;;;;0.20;0.20;;;;;;;3.05;100.00;100543.34;5002369;28;20050;-78
2021/11/13 05:07:27;;;;;;;0.30;0.30;;;;;;;2.99;100.00;100530.81;5002832;28;20054;-79
2021/11/13 05:10:01;;;;;;;0.20;0.20;;;;;;;3.06;100.00;100547.63;5002874;28;20509;-77
2021/11/13 05:12:38;;;;;;;0.20;0.20;;;;;;;3.05;100.00;100539.81;5001832;28;20104;-77
2021/11/13 05:15:07;;;;;;;0.10;0.10;;;;;;;3.08;100.00;100538.53;5004625;28;20042;-77
2021/11/13 05:17:42;;;;;;;0.20;0.20;;;;;;;3.16;100.00;100546.25;5001525;28;20042;-78
2021/11/13 05:20:18;;;;;;;0.30;0.30;;;;;;;3.11;100.00;100541.59;4997035;28;20124;-76
2021/11/13 05:22:48;;;;;;;0.10;0.10;;;;;;;3.15;100.00;100536.53;4997379;28;20061;-77
2021/11/13 05:25:20;;;;;;;0.20;0.20;;;;;;;3.13;100.00;100544.03;5003413;28;20429;-77
2021/11/13 05:27:54;;;;;;;0.30;0.30;;;;;;;3.15;100.00;100548.13;5009112;28;20518;-77
2021/11/13 05:30:28;;;;;;;0.20;0.20;;;;;;;3.16;100.00;100543.56;5004647;28;20053;-78
2021/11/13 05:33:01;;;;;;;0.20;0.20;;;;;;;3.16;100.00;100543.56;5005755;28;20050;-78
2021/11/13 05:35:34;;;;;;;0.20;0.20;;;;;;;3.18;100.00;100552.22;5000000;28;20054;-78
2021/11/13 05:38:03;;;;;;;0.30;0.30;;;;;;;3.18;100.00;100547.66;5001928;28;20042;-76
2021/11/13 05:40:38;;;;;;;0.22;0.22;;;;;;;3.16;100.00;100555.16;5001129;28;20050;-77
2021/11/13 05:43:06;;;;;;;0.20;0.20;;;;;;;3.17;100.00;100540.63;5004124;28;20519;-79
2021/11/13 05:45:40;;;;;;;0.20;0.20;;;;;;;3.17;100.00;100540.63;4999845;28;20061;-78
2021/11/13 05:48:08;;;;;;;0.10;0.10;;;;;;;3.16;100.00;100527.41;5030035;28;20605;-77
2021/11/13 05:50:37;;;;;;;0.15;0.15;;;;;;;3.15;100.00;100544.59;4994488;28;20065;-77
2021/11/13 05:53:10;;;;;;;0.20;0.20;;;;;;;3.18;100.00;100539.59;5008122;28;20507;-76
2021/11/13 05:55:45;;;;;;;0.20;0.20;;;;;;;3.19;100.00;100537.69;5013971;28;20054;-77
2021/11/13 05:58:18;;;;;;;0.20;0.20;;;;;;;3.14;100.00;100549.16;4999665;28;20061;-77
2021/11/13 06:00:52;;;;;;;0.20;0.20;;;;;;;3.17;100.00;100559.44;4999891;28;20061;-78
2021/11/13 06:03:25;;;;;;;0.28;0.28;;;;;;;3.15;100.00;100553.50;5003730;28;20057;-77
2021/11/13 06:05:58;;;;;;;0.10;0.10;;;;;;;3.13;100.00;100560.97;5003647;28;20050;-77
2021/11/13 06:08:31;;;;;;;0.20;0.20;;;;;;;3.19;100.00;100565.44;5004773;28;20482;-77
2021/11/13 06:11:06;;;;;;;0.20;0.20;;;;;;;3.14;100.00;100564.50;5001704;28;20129;-78
2021/11/13 06:13:40;;;;;;;0.15;0.15;;;;;;;3.11;100.00;100556.88;5003421;28;20053;-78
2021/11/13 06:16:13;;;;;;;0.30;0.30;;;;;;;3.06;100.00;100561.09;5009409;28;20394;-77
2021/11/13 06:18:46;;;;;;;0.30;0.30;;;;;;;3.12;100.00;100551.28;5003231;28;20049;-77
2021/11/13 06:21:15;;;;;;;0.20;0.20;;;;;;;3.10;100.00;100549.88;5003288;28;20066;-76
2021/11/13 06:23:48;;;;;;;0.22;0.22;;;;;;;3.13;100.00;100552.91;5001418;28;20056;-78
2021/11/13 06:26:19;;;;;;;0.20;0.20;;;;;;;3.13;100.00;100558.28;4996000;28;20417;-78
2021/11/13 06:28:52;;;;;;;0.10;0.10;;;;;;;3.08;100.00;100557.34;5004810;28;21595;-77
2021/11/13 06:31:20;;;;;;;0.20;0.20;;;;;;;3.14;100.00;100559.13;5002595;28;20050;-77
2021/11/13 06:33:49;;;;;;;0.20;0.20;;;;;;;3.27;100.00;100560.75;5003540;28;20061;-77
2021/11/13 06:36:17;;;;;;;0.20;0.20;;;;;;;3.12;100.00;100566.59;5006918;28;20045;-77
2021/11/13 06:38:50;;;;;;;0.20;0.20;;;;;;;3.10;100.00;100569.50;5005829;28;20049;-77
2021/11/13 06:41:29;;;;;;;0.20;0.20;;;;;;;3.08;100.00;100568.09;5015503;28;20053;-79
2021/11/13 06:44:03;;;;;;;0.20;0.20;;;;;;;3.11;100.00;100583.75;5004513;28;20068;-78
2021/11/13 06:46:36;;;;;;;0.30;0.30;;;;;;;3.13;100.00;100587.06;5003734;28;20053;-77
2021/11/13 06:49:09;;;;;;;0.30;0.30;;;;;;;3.11;100.00;100581.91;4996334;28;20060;-78
2021/11/13 06:51:42;;;;;;;0.20;0.20;;;;;;;3.13;100.00;100590.56;5001230;28;20048;-76
2021/11/13 06:54:16;;;;;;;0.25;0.25;;;;;;;3.20;100.00;100593.97;5003936;28;20061;-77
2021/11/13 06:56:50;;;;;;;0.20;0.20;;;;;;;3.10;100.00;100572.19;5006540;28;20049;-78
2021/11/13 06:59:24;;;;;;;0.20;0.20;;;;;;;3.13;100.00;100593.25;5002997;28;20497;-77
2021/11/13 07:01:52;;;;;;;0.20;0.20;;;;;;;3.16;100.00;100595.50;5003638;28;20054;-77
2021/11/13 07:04:25;;;;;;;0.20;0.20;;;;;;;3.22;100.00;100594.53;5018675;28;20062;-77
2021/11/13 07:06:58;;;;;;;0.20;0.20;;;;;;;3.25;100.00;100593.25;5000642;28;20046;-78
2021/11/13 07:09:31;;;;;;;0.20;0.20;;;;;;;3.33;100.00;100602.84;4996285;28;20563;-76
2021/11/13 07:12:07;;;;;;;0.20;0.20;;;;;;;3.33;100.00;100603.69;4999738;28;20400;-77
2021/11/13 07:14:41;;;;;;;0.20;0.20;;;;;;;3.33;100.00;100608.22;5001413;28;20046;-78
2021/11/13 07:17:14;;;;;;;0.30;0.30;;;;;;;3.36;100.00;100594.31;5002670;28;20050;-77
2021/11/13 07:19:47;;;;;;;0.20;0.20;;;;;;;3.43;100.00;100595.03;5025495;28;20049;-78
2021/11/13 07:22:20;;;;;;;0.28;0.28;;;;;;;3.49;100.00;100602.13;4997971;28;20406;-76
2021/11/13 07:24:49;;;;;;;0.25;0.25;;;;;;;3.60;100.00;100602.38;5000691;28;20442;-78
2021/11/13 07:27:23;;;;;;;0.30;0.30;;;;;;;3.63;100.00;100616.16;5002080;28;20068;-77
2021/11/13 07:30:00;;;;;;;0.20;0.20;;;;;;;3.72;100.00;100613.97;5000470;28;20053;-76
2021/11/13 07:32:33;;;;;;;0.20;0.20;;;;;;;3.72;100.00;100616.66;5002889;28;20513;-76
2021/11/13 07:35:07;;;;;;;0.20;0.20;;;;;;;3.73;100.00;100615.59;5003741;28;20057;-77
2021/11/13 07:37:35;;;;;;;0.28;0.28;;;;;;;3.78;100.00;100625.66;5005146;28;20088;-76
2021/11/13 07:40:10;;;;;;;0.20;0.20;;;;;;;3.87;100.00;100616.16;5018916;28;20065;-77
2021/11/13 07:42:45;;;;;;;0.17;0.17;;;;;;;3.87;100.00;100627.75;5002228;28;20048;-78
2021/11/13 07:45:18;;;;;;;0.28;0.28;;;;;;;4.00;100.00;100623.16;5035058;28;20413;-78
2021/11/13 07:47:51;;;;;;;0.20;0.20;;;;;;;3.91;100.00;100622.72;5005301;28;20054;-77
2021/11/13 07:50:20;;;;;;;0.20;0.20;;;;;;;3.95;100.00;100623.88;5001382;28;20467;-78
2021/11/13 07:52:53;;;;;;;0.20;0.20;;;;;;;4.04;100.00;100633.22;4997870;28;20061;-77
2021/11/13 07:55:26;;;;;;;0.20;0.20;;;;;;;3.95;100.00;100634.66;5003876;28;20050;-77
2021/11/13 07:58:01;;;;;;;0.10;0.10;;;;;;;4.01;100.00;100633.69;5003604;28;20549;-77
2021/11/13 08:00:30;;;;;;;0.20;0.20;;;;;;;3.96;100.00;100638.97;5034983;28;20577;-76
2021/11/13 08:02:58;;;;;;;0.20;0.20;;;;;;;3.99;100.00;100643.06;5000999;28;20046;-77
2021/11/13 08:05:27;;;;;;;0.20;0.20;;;;;;;4.00;100.00;100648.19;5020596;28;20061;-77
2021/11/13 08:08:00;;;;;;;0.20;0.20;;;;;;;3.94;100.00;100638.38;5004503;28;20425;-77
2021/11/13 08:10:28;;;;;;;0.20;0.20;;;;;;;3.97;100.00;100653.25;4999337;28;20049;-78
2021/11/13 08:13:03;;;;;;;0.20;0.20;;;;;;;3.95;100.00;100652.66;4995397;28;20054;-77
2021/11/13 08:15:31;;;;;;;0.20;0.20;;;;;;;4.02;100.00;100653.34;4997226;28;20057;-77
2021/11/13 08:18:05;;;;;;;0.25;0.25;;;;;;;3.97;100.00;100659.44;4999789;28;20054;-78
2021/11/13 08:20:40;;;;;;;0.20;0.20;;;;;;;4.03;100.00;100663.06;5018333;28;20045;-77
2021/11/13 08:23:09;;;;;;;0.20;0.20;;;;;;;3.98;100.00;100655.72;5001826;28;20419;-79
2021/11/13 08:25:45;;;;;;;0.20;0.20;;;;;;;3.96;100.00;100654.31;5004164;28;20406;-78
2021/11/13 08:28:20;;;;;;;0.30;0.30;;;;;;;3.90;100.00;100658.75;5003226;28;20430;-77
2021/11/13 08:30:54;;;;;;;0.20;0.20;;;;;;;3.89;100.00;100657.13;5004419;28;20042;-78
2021/11/13 08:33:29;;;;;;;0.20;0.20;;;;;;;3.97;100.00;100661.34;4985195;28;20058;-78
2021/11/13 08:36:03;;;;;;;0.20;0.20;;;;;;;4.03;100.00;100663.91;4987392;28;20065;-80
2021/11/13 08:38:37;;;;;;;0.20;0.20;;;;;;;4.09;100.00;100660.25;4993533;28;20041;-80
2021/11/13 08:41:10;;;;;;;0.20;0.20;;;;;;;4.11;100.00;100668.09;5026448;28;20065;-79
2021/11/13 08:43:44;;;;;;;0.20;0.20;;;;;;;4.13;100.00;100663.31;4991553;28;20524;-78
2021/11/13 08:46:19;;;;;;;0.22;0.22;;;;;;;4.12;100.00;100660.84;4994009;28;20057;-79
2021/11/13 08:48:52;;;;;;;0.20;0.20;;;;;;;4.09;100.00;100668.34;4997320;28;20048;-79
2021/11/13 08:51:25;;;;;;;0.20;0.20;;;;;;;4.14;100.00;100666.81;4991299;28;20983;-80
2021/11/13 08:53:59;;;;;;;0.20;0.20;;;;;;;4.15;100.00;100671.13;5004472;28;20065;-78
2021/11/13 08:56:32;;;;;;;0.30;0.30;;;;;;;4.21;100.00;100668.31;5006770;28;20116;-80
2021/11/13 08:59:03;;;;;;;0.25;0.20;;;;;;;4.20;100.00;100674.75;4987780;28;20053;-78
2021/11/13 09:01:32;;;;;;;0.20;0.20;;;;;;;4.19;100.00;100667.72;4987955;28;20733;-77
2021/11/13 09:04:01;;;;;;;0.20;0.20;;;;;;;4.25;100.00;100671.34;4992824;28;20054;-79
2021/11/13 09:06:30;;;;;;;0.20;0.20;;;;;;;4.30;100.00;100667.94;4990183;28;20049;-78
2021/11/13 09:09:02;;;;;;;0.20;0.20;;;;;;;4.22;100.00;100667.25;4994608;28;20053;-78
2021/11/13 09:11:34;;;;;;;0.20;0.20;;;;;;;4.17;100.00;100674.41;4998624;28;20054;-79
2021/11/13 09:14:06;;;;;;;0.20;0.20;;;;;;;4.10;100.00;100682.59;4996654;28;20053;-79
2021/11/13 09:16:40;;;;;;;0.20;0.20;;;;;;;4.20;100.00;100682.84;4999750;28;20124;-78
2021/11/13 09:19:14;;;;;;;0.10;0.10;;;;;;;4.19;100.00;100689.28;5000248;28;20064;-79
2021/11/13 09:21:48;;;;;;;0.28;0.28;;;;;;;4.24;100.00;100681.31;4985356;28;20057;-80
2021/11/13 09:24:17;;;;;;;0.20;0.20;;;;;;;4.31;100.00;100688.44;4992254;28;20053;-80
2021/11/13 09:26:45;;;;;;;0.20;0.20;;;;;;;4.36;100.00;100683.97;4991221;28;21073;-80
2021/11/13 09:29:19;;;;;;;0.30;0.30;;;;;;;4.41;100.00;100684.06;4997045;28;20045;-79
2021/11/13 09:31:53;;;;;;;0.20;0.20;;;;;;;4.43;100.00;100689.22;4995440;28;20089;-78
2021/11/13 09:34:26;;;;;;;0.20;0.20;;;;;;;4.48;100.00;100691.22;4990533;28;20049;-80
2021/11/13 09:36:59;;;;;;;0.20;0.20;;;;;;;4.47;100.00;100690.38;4991872;28;20092;-78
2021/11/13 09:39:27;;;;;;;0.20;0.20;;;;;;;4.58;100.00;100694.94;4986574;28;20091;-79
2021/11/13 09:42:02;;;;;;;0.20;0.20;;;;;;;4.67;100.00;100691.84;4989752;28;20112;-80
2021/11/13 09:44:36;;;;;;;0.20;0.20;;;;;;;4.70;100.00;100691.38;4991781;28;20057;-80
2021/11/13 09:47:10;;;;;;;0.28;0.28;;;;;;;4.70;100.00;100691.38;4993780;28;20585;-80
2021/11/13 09:49:44;;;;;;;0.20;0.20;;;;;;;4.76;100.00;100693.09;4990667;28;20063;-79
2021/11/13 09:52:13;;;;;;;0.20;0.20;;;;;;;4.81;100.00;100685.13;4997290;28;20499;-78
2021/11/13 09:54:47;;;;;;;0.30;0.30;;;;;;;4.68;100.00;100682.69;4995249;28;20049;-78
2021/11/13 09:57:20;;;;;;;0.20;0.20;;;;;;;4.85;100.00;100699.75;4994692;28;20548;-81
2021/11/13 09:59:55;;;;;;;0.17;0.17;;;;;;;4.90;100.00;100682.84;4994190;28;20048;-79
2021/11/13 10:02:39;;;;;;;0.15;0.15;;;;;;;4.92;100.00;100697.72;5000201;28;20041;-79
2021/11/13 10:05:14;;;;;;;0.20;0.20;;;;;;;4.99;100.00;100700.28;4994870;28;20049;-79
2021/11/13 10:07:47;;;;;;;0.20;0.20;;;;;;;4.92;100.00;100684.25;4974857;28;20080;-77
2021/11/13 10:10:29;;;;;;;0.20;0.20;;;;;;;5.00;100.00;100693.00;5007238;28;20443;-78
2021/11/13 10:12:58;;;;;;;0.20;0.20;;;;;;;5.07;100.00;100688.28;5006056;28;20042;-78
2021/11/13 10:15:34;;;;;;;0.30;0.30;;;;;;;5.05;100.00;100702.00;5004732;28;20050;-79
2021/11/13 10:18:11;;;;;;;0.30;0.30;;;;;;;5.09;100.00;100696.94;5022088;28;20054;-79
2021/11/13 10:20:47;;;;;;;0.20;0.20;;;;;;;5.05;100.00;100702.00;4998372;28;20042;-82
2021/11/13 10:23:34;;;;;;;0.20;0.20;;;;;;;4.85;100.00;100698.94;5003553;28;20402;-81
2021/11/13 10:26:11;;;;;;;0.20;0.20;;;;;;;4.87;100.00;100708.41;5005584;28;20046;-80
2021/11/13 10:28:48;;;;;;;0.22;0.22;;;;;;;4.87;100.00;100710.28;5004076;28;20057;-80
2021/11/13 10:31:26;;;;;;;0.27;0.27;;;;;;;5.01;100.00;100713.50;5009479;28;20041;-80
2021/11/13 10:33:58;;;;;;;0.20;0.20;;;;;;;4.96;100.00;100706.16;5004135;28;20299;-80
2021/11/13 10:36:34;;;;;;;0.20;0.20;;;;;;;5.03;100.00;100719.50;5007892;28;20058;-81
2021/11/13 10:39:10;;;;;;;0.20;0.20;;;;;;;4.96;100.00;100716.94;4997289;28;20821;-80
2021/11/13 10:41:45;;;;;;;0.20;0.20;;;;;;;5.02;100.00;100709.75;5009360;28;20042;-81
2021/11/13 10:44:24;;;;;;;0.20;0.20;;;;;;;5.01;100.00;100716.22;5002489;28;20053;-80
2021/11/13 10:47:00;;;;;;;0.20;0.20;;;;;;;5.05;100.00;100717.38;4999341;28;20050;-80
2021/11/13 10:49:34;;;;;;;0.20;0.20;;;;;;;5.09;100.00;100713.13;5018193;28;20050;-80
2021/11/13 10:52:06;;;;;;;0.20;0.20;;;;;;;5.19;100.00;100718.72;5007128;28;20053;-79
2021/11/13 10:54:43;;;;;;;0.20;0.20;;;;;;;5.15;100.00;100714.88;5006205;28;20058;-78
2021/11/13 10:57:12;;;;;;;0.20;0.20;;;;;;;5.17;100.00;100709.22;5002716;28;20384;-79
2021/11/13 10:59:44;;;;;;;0.22;0.22;;;;;;;5.31;100.00;100702.44;5001462;28;20061;-82
2021/11/13 11:02:19;;;;;;;0.15;0.15;;;;;;;5.32;100.00;100701.38;5005533;28;20057;-82
2021/11/13 11:04:48;;;;;;;0.20;0.20;;;;;;;5.41;100.00;100704.50;5038118;28;20050;-83
2021/11/13 11:07:26;;;;;;;0.20;0.20;;;;;;;5.45;100.00;100700.25;5003575;28;20415;-83
2021/11/13 11:10:03;;;;;;;0.10;0.10;;;;;;;5.49;100.00;100712.19;5005799;28;20518;-82
2021/11/13 11:12:33;;;;;;;0.20;0.20;;;;;;;5.57;100.00;100709.06;5004137;28;20058;-83
2021/11/13 11:15:07;;;;;;;0.30;0.30;;;;;;;5.53;100.00;100699.03;5003933;28;20054;-82
2021/11/13 11:17:43;;;;;;;0.20;0.20;;;;;;;5.33;100.00;100692.25;5032939;28;20050;-84
2021/11/13 11:20:18;;;;;;;0.22;0.22;;;;;;;5.42;100.00;100706.13;5002367;28;20045;-83
2021/11/13 11:22:47;;;;;;;0.20;0.20;;;;;;;5.46;100.00;100712.69;5034406;28;20418;-83
2021/11/13 11:25:26;;;;;;;0.20;0.20;;;;;;;5.45;100.00;100706.47;5015966;28;20062;-82
2021/11/13 11:27:58;;;;;;;0.28;0.28;;;;;;;5.57;100.00;100711.78;5004394;28;20045;-83
2021/11/13 11:30:31;;;;;;;0.20;0.20;;;;;;;5.36;100.00;100696.31;5003249;28;20041;-82
2021/11/13 11:33:09;;;;;;;0.20;0.20;;;;;;;5.54;100.00;100714.97;5011974;28;20045;-79
2021/11/13 11:35:39;;;;;;;0.20;0.20;;;;;;;5.65;100.00;100715.97;5007058;28;20426;-79
2021/11/13 11:38:14;;;;;;;0.20;0.20;;;;;;;5.76;100.00;100704.25;5018722;28;20077;-80
2021/11/13 11:40:45;;;;;;;0.20;0.20;;;;;;;5.96;100.00;100711.00;5008943;28;20045;-81
2021/11/13 11:43:15;;;;;;;0.20;0.20;;;;;;;6.10;100.00;100703.41;5002555;28;20061;-80
2021/11/13 11:45:45;;;;;;;0.30;0.30;;;;;;;6.14;100.00;100693.72;5002400;28;20054;-82
2021/11/13 11:48:24;;;;;;;0.20;0.20;;;;;;;6.26;100.00;100702.53;5003576;28;20141;-80
2021/11/13 11:50:53;;;;;;;0.20;0.20;;;;;;;6.15;100.00;100681.84;5005355;28;20073;-81